createdAt,value
2023-03-31T00:01:28.592Z,18.71
2023-03-31T00:04:05.107Z,18.72
2023-03-31T00:06:38.328Z,18.71
2023-03-31T00:09:05.974Z,18.73
2023-03-31T00:11:34.792Z,18.72
2023-03-31T00:14:03.921Z,18.74
2023-03-31T00:16:32.958Z,18.74
2023-03-31T00:21:42.875Z,18.76
2023-03-31T00:24:15.327Z,18.75
2023-03-31T00:26:44.128Z,18.75
2023-03-31T00:29:17.534Z,18.75
2023-03-31T00:31:47.381Z,18.77
2023-03-31T00:34:14.194Z,18.77
2023-03-31T00:36:47.719Z,18.77
2023-03-31T00:39:19.271Z,18.76
2023-03-31T00:41:48.482Z,18.77
2023-03-31T00:44:25.429Z,18.77
2023-03-31T00:47:07.152Z,18.78
2023-03-31T00:49:34.232Z,18.78
2023-03-31T00:52:27.584Z,18.79
2023-03-31T00:55:01.477Z,18.78
2023-03-31T00:57:30.366Z,18.78
2023-03-31T00:59:59.249Z,18.79
2023-03-31T01:02:25.993Z,18.79
2023-03-31T01:04:56.865Z,18.79
2023-03-31T01:07:47.678Z,18.81
2023-03-31T01:10:16.610Z,18.79
2023-03-31T01:12:49.103Z,18.79
2023-03-31T01:15:15.904Z,18.80
2023-03-31T01:17:45.832Z,18.78
2023-03-31T01:20:24.689Z,18.81
2023-03-31T01:23:28.835Z,18.81
2023-03-31T01:26:17.177Z,18.81
2023-03-31T01:29:21.566Z,18.81
2023-03-31T01:31:57.938Z,18.81
2023-03-31T01:34:43.316Z,18.81
2023-03-31T01:37:38.638Z,18.82
2023-03-31T01:40:10.581Z,18.82
2023-03-31T01:42:46.264Z,18.82
2023-03-31T01:45:21.228Z,18.83
2023-03-31T01:48:06.811Z,18.83
2023-03-31T01:50:49.608Z,18.82
2023-03-31T01:54:04.148Z,18.83
2023-03-31T01:57:16.587Z,18.83
2023-03-31T02:00:01.669Z,18.83
2023-03-31T02:02:31.448Z,18.83
2023-03-31T02:05:05.513Z,18.83
2023-03-31T02:07:49.168Z,18.84
2023-03-31T02:10:18.248Z,18.84
2023-03-31T02:12:47.332Z,18.84
2023-03-31T02:15:19.265Z,18.84
2023-03-31T02:17:51.743Z,18.84
2023-03-31T02:20:21.176Z,18.84
2023-03-31T02:22:55.404Z,18.85
2023-03-31T02:25:41.314Z,18.86
2023-03-31T02:28:12.413Z,18.85
2023-03-31T02:33:19.509Z,18.86
2023-03-31T02:35:46.249Z,18.87
2023-03-31T02:38:15.873Z,18.88
2023-03-31T02:40:42.557Z,18.86
2023-03-31T02:43:11.551Z,18.88
2023-03-31T02:45:49.501Z,18.88
2023-03-31T02:48:19.233Z,18.87
2023-03-31T02:54:16.674Z,18.88
2023-03-31T02:57:17.671Z,18.88
2023-03-31T02:59:53.464Z,18.89
2023-03-31T03:02:32.199Z,18.88
2023-03-31T03:05:13.761Z,18.88
2023-03-31T03:07:46.567Z,18.89
2023-03-31T03:10:21.296Z,18.89
2023-03-31T03:13:12.412Z,18.90
2023-03-31T03:15:50.798Z,18.89
2023-03-31T03:18:19.733Z,18.90
2023-03-31T03:20:51.161Z,18.90
2023-03-31T03:23:22.795Z,18.90
2023-03-31T03:25:51.864Z,18.90
2023-03-31T03:28:21.437Z,18.90
2023-03-31T03:30:51.466Z,18.91
2023-03-31T03:33:25.015Z,18.91
2023-03-31T03:35:52.002Z,18.89
2023-03-31T03:38:18.733Z,18.90
2023-03-31T03:40:50.325Z,18.91
2023-03-31T03:43:21.877Z,18.91
2023-03-31T03:45:54.882Z,18.91
2023-03-31T03:48:21.664Z,18.91
2023-03-31T03:50:50.732Z,18.91
2023-03-31T03:53:17.338Z,18.90
2023-03-31T03:55:49.091Z,18.92
2023-03-31T03:58:17.246Z,18.91
2023-03-31T04:00:48.630Z,18.88
2023-03-31T04:03:15.437Z,18.92
2023-03-31T04:05:45.310Z,18.92
2023-03-31T04:08:14.143Z,18.91
2023-03-31T04:10:46.942Z,18.91
2023-03-31T04:13:13.600Z,18.91
2023-03-31T04:15:40.356Z,18.91
2023-03-31T04:18:11.338Z,18.91
2023-03-31T04:20:40.891Z,18.92
2023-03-31T04:23:09.809Z,18.92
2023-03-31T04:25:46.420Z,18.94
2023-03-31T04:28:15.469Z,18.92
2023-03-31T04:30:44.510Z,18.94
2023-03-31T04:33:15.728Z,18.92
2023-03-31T04:35:52.721Z,18.94
2023-03-31T04:38:27.372Z,18.93
2023-03-31T04:40:54.269Z,18.94
2023-03-31T04:43:21.269Z,18.93
2023-03-31T04:45:47.953Z,18.94
2023-03-31T04:48:17.294Z,18.94
2023-03-31T04:50:48.801Z,18.94
2023-03-31T04:53:20.709Z,18.95
2023-03-31T04:55:47.330Z,18.94
2023-03-31T04:58:18.771Z,18.95
2023-03-31T05:00:47.934Z,18.95
2023-03-31T05:03:14.807Z,18.95
2023-03-31T05:05:47.107Z,18.95
2023-03-31T05:08:13.731Z,18.94
2023-03-31T05:10:45.289Z,18.94
2023-03-31T05:13:12.005Z,18.95
2023-03-31T05:15:43.382Z,18.96
2023-03-31T05:18:10.087Z,18.96
2023-03-31T05:20:38.948Z,18.95
2023-03-31T05:23:12.905Z,18.96
2023-03-31T05:25:42.416Z,18.97
2023-03-31T05:28:11.321Z,18.97
2023-03-31T05:30:40.177Z,18.98
2023-03-31T05:33:06.929Z,18.99
2023-03-31T05:35:33.570Z,18.99
2023-03-31T05:38:00.280Z,18.99
2023-03-31T05:40:26.920Z,18.99
2023-03-31T05:42:58.225Z,18.99
2023-03-31T05:45:24.849Z,18.99
2023-03-31T05:47:51.619Z,19.01
2023-03-31T05:50:20.724Z,19.00
2023-03-31T05:52:47.418Z,19.01
2023-03-31T05:55:14.074Z,18.92
2023-03-31T05:57:43.620Z,18.00
2023-03-31T06:00:15.163Z,17.46
2023-03-31T06:02:48.028Z,17.32
2023-03-31T06:05:14.887Z,17.10
2023-03-31T06:07:43.723Z,16.99
2023-03-31T06:10:13.092Z,16.77
2023-03-31T06:12:48.550Z,16.60
2023-03-31T06:15:16.243Z,17.14
2023-03-31T06:17:45.363Z,17.36
2023-03-31T06:20:27.187Z,17.50
2023-03-31T06:22:55.174Z,17.59
2023-03-31T06:25:24.562Z,17.66
2023-03-31T06:27:53.877Z,17.71
2023-03-31T06:30:20.729Z,17.77
2023-03-31T06:32:47.392Z,17.84
2023-03-31T06:35:17.328Z,17.88
2023-03-31T06:37:49.675Z,17.93
2023-03-31T06:40:16.591Z,18.00
2023-03-31T06:42:45.659Z,18.04
2023-03-31T06:45:14.577Z,18.10
2023-03-31T06:47:44.038Z,18.14
2023-03-31T06:50:11.577Z,18.18
2023-03-31T06:52:38.264Z,18.22
2023-03-31T06:55:05.507Z,18.24
2023-03-31T06:57:35.309Z,18.31
2023-03-31T07:00:02.186Z,18.35
2023-03-31T07:02:31.403Z,18.41
2023-03-31T07:04:58.118Z,18.43
2023-03-31T07:07:28.023Z,18.45
2023-03-31T07:09:56.853Z,18.50
2023-03-31T07:12:24.553Z,18.54
2023-03-31T07:14:51.354Z,18.57
2023-03-31T07:17:18.123Z,18.63
2023-03-31T07:19:48.255Z,18.69
2023-03-31T07:22:15.912Z,18.74
2023-03-31T07:24:44.796Z,18.78
2023-03-31T07:27:11.398Z,18.82
2023-03-31T07:29:40.767Z,18.85
2023-03-31T07:32:07.622Z,18.89
2023-03-31T07:34:37.614Z,18.90
2023-03-31T07:37:06.731Z,18.94
2023-03-31T07:39:36.582Z,18.96
2023-03-31T07:42:03.322Z,18.98
2023-03-31T07:44:29.940Z,19.01
2023-03-31T07:47:01.433Z,19.03
2023-03-31T07:49:31.242Z,19.04
2023-03-31T07:51:57.928Z,19.07
2023-03-31T07:54:24.920Z,19.09
2023-03-31T07:56:56.388Z,19.12
2023-03-31T07:59:25.485Z,19.14
2023-03-31T08:01:56.850Z,19.15
2023-03-31T08:04:23.616Z,19.18
2023-03-31T08:06:52.512Z,19.21
2023-03-31T08:09:24.009Z,19.22
2023-03-31T08:11:55.366Z,19.25
2023-03-31T08:14:34.134Z,19.26
2023-03-31T08:17:07.468Z,19.26
2023-03-31T08:19:34.187Z,19.25
2023-03-31T08:22:12.205Z,19.25
2023-03-31T08:24:43.657Z,19.27
2023-03-31T08:27:13.310Z,19.28
2023-03-31T08:29:42.246Z,19.36
2023-03-31T08:32:13.651Z,19.38
2023-03-31T08:34:44.712Z,19.39
2023-03-31T08:37:13.616Z,19.40
2023-03-31T08:39:40.360Z,19.39
2023-03-31T08:42:22.733Z,19.37
2023-03-31T08:45:04.236Z,19.40
2023-03-31T08:47:35.291Z,19.43
2023-03-31T08:50:13.917Z,19.51
2023-03-31T08:52:51.265Z,19.51
2023-03-31T08:55:32.348Z,19.48
2023-03-31T08:58:13.662Z,19.46
2023-03-31T09:00:48.958Z,19.44
2023-03-31T09:03:31.663Z,19.45
2023-03-31T09:06:03.233Z,19.43
2023-03-31T09:08:37.568Z,19.45
2023-03-31T09:11:08.061Z,19.45
2023-03-31T09:13:37.548Z,19.44
2023-03-31T09:16:35.886Z,19.44
2023-03-31T09:19:02.760Z,19.44
2023-03-31T09:21:35.732Z,19.48
2023-03-31T09:24:10.658Z,19.56
2023-03-31T09:27:09.911Z,19.60
2023-03-31T09:29:43.131Z,19.63
2023-03-31T09:32:24.595Z,19.63
2023-03-31T09:35:01.159Z,19.67
2023-03-31T09:37:32.974Z,19.69
2023-03-31T09:40:07.510Z,19.71
2023-03-31T09:42:37.990Z,19.71
2023-03-31T09:45:05.002Z,19.73
2023-03-31T09:47:39.990Z,19.78
2023-03-31T09:50:07.764Z,19.80
2023-03-31T09:52:46.296Z,19.82
2023-03-31T09:55:39.590Z,19.85
2023-03-31T09:58:12.232Z,19.86
2023-03-31T10:00:43.386Z,19.88
2023-03-31T10:03:15.148Z,19.89
2023-03-31T10:05:52.643Z,19.91
2023-03-31T10:08:28.228Z,19.92
2023-03-31T10:10:57.818Z,19.94
2023-03-31T10:13:31.251Z,19.95
2023-03-31T10:16:08.518Z,19.96
2023-03-31T10:18:39.823Z,19.95
2023-03-31T10:21:24.019Z,19.89
2023-03-31T10:23:51.274Z,19.93
2023-03-31T10:26:24.782Z,19.91
2023-03-31T10:28:55.198Z,19.91
2023-03-31T10:31:34.848Z,19.93
2023-03-31T10:34:05.764Z,19.93
2023-03-31T10:36:32.450Z,19.91
2023-03-31T10:39:01.317Z,19.91
2023-03-31T10:41:34.631Z,19.90
2023-03-31T10:44:06.040Z,19.92
2023-03-31T10:46:48.838Z,19.92
2023-03-31T10:49:21.758Z,19.92
2023-03-31T10:52:02.189Z,19.93
2023-03-31T10:54:28.788Z,19.95
2023-03-31T10:57:00.337Z,19.96
2023-03-31T10:59:50.673Z,19.96
2023-03-31T11:02:29.330Z,19.95
2023-03-31T11:05:18.340Z,19.95
2023-03-31T11:08:22.956Z,19.96
2023-03-31T11:11:10.619Z,19.94
2023-03-31T11:14:11.134Z,19.95
2023-03-31T11:16:57.477Z,19.95
2023-03-31T11:19:45.054Z,19.94
2023-03-31T11:22:20.816Z,19.95
2023-03-31T11:27:55.859Z,19.92
2023-03-31T11:30:39.830Z,19.92
2023-03-31T11:33:22.762Z,19.90
2023-03-31T11:36:20.428Z,19.90
2023-03-31T11:39:09.255Z,19.89
2023-03-31T11:41:52.431Z,19.88
2023-03-31T11:44:21.778Z,19.87
2023-03-31T11:46:54.887Z,19.87
2023-03-31T11:49:27.518Z,19.86
2023-03-31T11:52:02.969Z,19.85
2023-03-31T11:54:39.096Z,19.86
2023-03-31T11:57:23.694Z,19.84
2023-03-31T12:00:06.368Z,19.84
2023-03-31T12:02:55.169Z,19.85
2023-03-31T12:05:29.081Z,19.84
2023-03-31T12:08:24.785Z,19.84
2023-03-31T12:10:56.261Z,19.84
2023-03-31T12:13:28.908Z,19.85
2023-03-31T12:16:15.022Z,19.84
2023-03-31T12:18:54.096Z,19.85
2023-03-31T12:21:26.621Z,19.85
2023-03-31T12:23:53.208Z,19.83
2023-03-31T12:26:36.377Z,19.83
2023-03-31T12:29:13.012Z,19.83
2023-03-31T12:31:41.977Z,19.82
2023-03-31T12:34:16.390Z,19.82
2023-03-31T12:37:19.195Z,19.82
2023-03-31T12:39:46.230Z,19.82
2023-03-31T12:42:44.643Z,19.84
2023-03-31T12:45:20.422Z,19.84
2023-03-31T12:47:47.420Z,19.83
2023-03-31T12:50:27.815Z,19.83
2023-03-31T12:53:06.116Z,19.83
2023-03-31T12:55:39.044Z,19.83
2023-03-31T12:58:32.500Z,19.82
2023-03-31T13:01:24.219Z,19.81
2023-03-31T13:03:54.745Z,19.82
2023-03-31T13:06:27.527Z,19.82
2023-03-31T13:08:54.259Z,19.83
2023-03-31T13:11:23.261Z,19.82
2023-03-31T13:14:01.026Z,19.82
2023-03-31T13:16:30.574Z,19.82
2023-03-31T13:19:02.069Z,19.84
2023-03-31T13:21:33.489Z,19.83
2023-03-31T13:24:05.527Z,19.82
2023-03-31T13:26:48.809Z,19.83
2023-03-31T13:29:15.598Z,19.83
2023-03-31T13:32:01.088Z,19.82
2023-03-31T13:34:35.530Z,19.81
2023-03-31T13:37:30.530Z,19.81
2023-03-31T13:39:59.901Z,19.81
2023-03-31T13:42:49.382Z,19.82
2023-03-31T13:45:38.076Z,19.81
2023-03-31T13:48:26.412Z,19.81
2023-03-31T13:51:16.246Z,19.80
2023-03-31T13:53:58.143Z,19.81
2023-03-31T13:56:28.412Z,19.80
2023-03-31T13:59:32.791Z,19.79
2023-03-31T14:02:27.312Z,19.80
2023-03-31T14:04:56.999Z,19.80
2023-03-31T14:07:37.840Z,19.79
2023-03-31T14:10:07.256Z,19.80
2023-03-31T14:12:35.818Z,19.80
2023-03-31T14:15:05.233Z,19.80
2023-03-31T14:17:43.945Z,19.78
2023-03-31T14:20:36.471Z,19.80
2023-03-31T14:23:08.612Z,19.80
2023-03-31T14:25:36.156Z,19.80
2023-03-31T14:28:21.756Z,19.79
2023-03-31T14:31:11.046Z,19.80
2023-03-31T14:34:15.796Z,19.80
2023-03-31T14:37:01.808Z,19.79
2023-03-31T14:39:36.522Z,19.79
2023-03-31T14:42:06.286Z,19.80
2023-03-31T14:44:34.192Z,19.79
2023-03-31T14:47:01.855Z,19.78
2023-03-31T14:49:30.498Z,19.79
2023-03-31T14:52:03.408Z,19.79
2023-03-31T14:54:34.354Z,19.80
2023-03-31T14:57:03.618Z,19.79
2023-03-31T14:59:32.831Z,19.79
2023-03-31T15:02:01.765Z,19.79
2023-03-31T15:04:41.296Z,19.79
2023-03-31T15:07:13.544Z,19.79
2023-03-31T15:09:40.163Z,19.79
2023-03-31T15:12:14.961Z,19.80
2023-03-31T15:15:04.062Z,19.80
2023-03-31T15:17:39.462Z,19.77
2023-03-31T15:20:39.948Z,19.79
2023-03-31T15:23:25.295Z,19.78
2023-03-31T15:26:02.001Z,19.79
2023-03-31T15:28:34.085Z,19.75
2023-03-31T15:31:10.268Z,19.79
2023-03-31T15:33:41.649Z,19.78
2023-03-31T15:36:13.715Z,19.78
2023-03-31T15:38:42.481Z,19.78
2023-03-31T15:41:17.071Z,19.79
2023-03-31T15:44:05.624Z,19.79
2023-03-31T15:46:38.527Z,19.78
2023-03-31T15:49:05.925Z,19.79
2023-03-31T15:51:43.737Z,19.77
2023-03-31T15:54:49.968Z,19.79
2023-03-31T15:57:19.998Z,19.79
2023-03-31T15:59:55.827Z,19.79
2023-03-31T16:02:25.137Z,19.78
2023-03-31T16:04:58.163Z,19.79
2023-03-31T16:07:33.484Z,19.80
2023-03-31T16:10:06.339Z,19.80
2023-03-31T16:12:36.899Z,19.80
2023-03-31T16:15:10.625Z,19.80
2023-03-31T16:17:43.192Z,19.81
2023-03-31T16:20:16.823Z,19.80
2023-03-31T16:22:48.341Z,19.81
2023-03-31T16:25:19.125Z,19.80
2023-03-31T16:27:47.891Z,19.81
2023-03-31T16:30:16.891Z,19.81
2023-03-31T16:33:11.794Z,19.79
2023-03-31T16:36:01.773Z,19.81
2023-03-31T16:38:29.582Z,19.81
2023-03-31T16:40:57.626Z,19.80
2023-03-31T16:43:28.744Z,19.81
2023-03-31T16:45:58.389Z,19.81
2023-03-31T16:48:29.278Z,19.81
2023-03-31T16:50:57.545Z,19.81
2023-03-31T16:53:27.854Z,19.81
2023-03-31T16:55:55.076Z,19.82
2023-03-31T16:58:24.437Z,19.81
2023-03-31T17:00:58.190Z,19.80
2023-03-31T17:03:25.306Z,19.82
2023-03-31T17:05:57.805Z,19.81
2023-03-31T17:08:29.271Z,19.81
2023-03-31T17:11:07.081Z,19.82
2023-03-31T17:13:38.508Z,19.82
2023-03-31T17:16:18.657Z,19.82
2023-03-31T17:18:53.129Z,19.81
2023-03-31T17:21:24.656Z,19.81
2023-03-31T17:23:53.497Z,19.81
2023-03-31T17:26:22.328Z,19.81
2023-03-31T17:28:49.104Z,19.82
2023-03-31T17:31:19.462Z,19.82
2023-03-31T17:33:50.869Z,19.81
2023-03-31T17:36:20.150Z,19.82
2023-03-31T17:38:47.132Z,19.81
2023-03-31T17:41:18.223Z,19.80
2023-03-31T17:43:45.854Z,19.81
2023-03-31T17:46:16.370Z,19.80
2023-03-31T17:48:43.420Z,19.81
2023-03-31T17:51:15.420Z,19.81
2023-03-31T17:53:46.234Z,19.81
2023-03-31T17:56:13.280Z,19.82
2023-03-31T17:58:42.095Z,19.80
2023-03-31T18:01:09.575Z,19.82
2023-03-31T18:03:39.251Z,19.81
2023-03-31T18:06:07.565Z,19.80
2023-03-31T18:08:34.926Z,19.79
2023-03-31T18:11:08.314Z,19.80
2023-03-31T18:13:36.310Z,19.81
2023-03-31T18:16:08.778Z,19.81
2023-03-31T18:18:36.748Z,19.80
2023-03-31T18:21:09.825Z,19.81
2023-03-31T18:23:36.742Z,19.80
2023-03-31T18:26:07.429Z,19.81
2023-03-31T18:28:36.286Z,19.81
2023-03-31T18:31:06.752Z,19.81
2023-03-31T18:33:36.105Z,19.82
2023-03-31T18:36:05.089Z,19.81
2023-03-31T18:38:34.483Z,19.81
2023-03-31T18:41:03.647Z,19.81
2023-03-31T18:43:33.346Z,19.82
2023-03-31T18:46:04.833Z,19.82
2023-03-31T18:48:31.598Z,19.82
2023-03-31T18:50:58.467Z,19.81
2023-03-31T18:53:25.275Z,19.81
2023-03-31T18:55:57.885Z,19.80
2023-03-31T18:58:30.350Z,19.81
2023-03-31T19:00:57.724Z,19.81
2023-03-31T19:03:27.663Z,19.81
2023-03-31T19:06:06.757Z,19.81
2023-03-31T19:08:33.445Z,19.80
2023-03-31T19:11:07.574Z,19.81
2023-03-31T19:13:34.497Z,19.81
2023-03-31T19:16:01.660Z,19.81
2023-03-31T19:18:33.635Z,19.81
2023-03-31T19:21:03.025Z,19.81
2023-03-31T19:23:34.126Z,19.81
2023-03-31T19:26:02.977Z,19.81
2023-03-31T19:28:32.358Z,19.81
2023-03-31T19:30:59.165Z,19.81
2023-03-31T19:33:29.042Z,19.81
2023-03-31T19:36:02.089Z,19.81
2023-03-31T19:38:32.054Z,19.81
2023-03-31T19:41:00.038Z,19.80
2023-03-31T19:43:31.746Z,19.80
2023-03-31T19:45:58.709Z,19.81
2023-03-31T19:48:26.648Z,19.80
2023-03-31T19:50:59.609Z,19.81
2023-03-31T19:53:26.605Z,19.80
2023-03-31T19:55:57.742Z,19.80
2023-03-31T19:58:27.194Z,19.80
2023-03-31T20:00:54.610Z,19.80
2023-03-31T20:03:24.544Z,19.79
2023-03-31T20:05:52.041Z,19.79
2023-03-31T20:08:18.666Z,19.79
2023-03-31T20:10:47.512Z,19.80
2023-03-31T20:13:17.848Z,19.78
2023-03-31T20:15:49.277Z,19.80
2023-03-31T20:18:19.718Z,19.78
2023-03-31T20:20:51.233Z,19.80
2023-03-31T20:23:21.087Z,19.79
2023-03-31T20:25:51.286Z,19.78
2023-03-31T20:28:20.160Z,19.79
2023-03-31T20:30:51.914Z,19.79
2023-03-31T20:33:18.549Z,19.79
2023-03-31T20:35:50.134Z,19.79
2023-03-31T20:38:19.054Z,19.78
2023-03-31T20:40:49.119Z,19.78
2023-03-31T20:43:15.778Z,19.78
2023-03-31T20:45:47.129Z,19.79
2023-03-31T20:48:19.273Z,19.79
2023-03-31T20:50:46.029Z,19.78
2023-03-31T20:53:17.947Z,19.78
2023-03-31T20:55:47.347Z,19.79
2023-03-31T20:58:14.149Z,19.79
2023-03-31T21:00:46.136Z,19.79
2023-03-31T21:03:12.892Z,19.78
2023-03-31T21:05:48.637Z,19.78
2023-03-31T21:08:15.815Z,19.79
2023-03-31T21:10:43.538Z,19.77
2023-03-31T21:13:16.725Z,19.78
2023-03-31T21:15:47.460Z,19.78
2023-03-31T21:18:16.789Z,19.78
2023-03-31T21:20:53.839Z,19.78
2023-03-31T21:23:22.945Z,19.77
2023-03-31T21:25:50.625Z,19.76
2023-03-31T21:28:19.822Z,19.77
2023-03-31T21:30:56.000Z,19.75
2023-03-31T21:33:28.831Z,19.77
2023-03-31T21:35:59.038Z,19.76
2023-03-31T21:38:25.963Z,19.76
2023-03-31T21:40:52.709Z,19.76
2023-03-31T21:43:19.853Z,19.75
2023-03-31T21:45:48.670Z,19.75
2023-03-31T21:48:15.406Z,19.76
2023-03-31T21:50:42.196Z,19.75
2023-03-31T21:53:12.192Z,19.76
2023-03-31T21:55:41.613Z,19.76
2023-03-31T21:58:10.978Z,19.76
2023-03-31T22:00:39.983Z,19.76
2023-03-31T22:05:43.505Z,19.74
2023-03-31T22:08:13.021Z,19.76
2023-03-31T22:10:39.930Z,19.75
2023-03-31T22:13:09.222Z,19.75
2023-03-31T22:15:38.058Z,19.75
2023-03-31T22:18:04.795Z,19.75
2023-03-31T22:20:31.879Z,19.74
2023-03-31T22:23:00.920Z,19.76
2023-03-31T22:25:30.732Z,19.76
2023-03-31T22:28:06.065Z,19.75
2023-03-31T22:30:33.861Z,19.74
2023-03-31T22:33:02.774Z,19.74
2023-03-31T22:35:34.427Z,19.75
2023-03-31T22:38:04.461Z,19.75
2023-03-31T22:40:32.423Z,19.74
2023-03-31T22:43:01.654Z,19.74
2023-03-31T22:45:33.775Z,19.75
2023-03-31T22:48:00.703Z,19.75
2023-03-31T22:50:27.486Z,19.74
2023-03-31T22:53:00.606Z,19.75
2023-03-31T22:55:27.306Z,19.74
2023-03-31T22:57:56.998Z,19.74
2023-03-31T23:00:25.839Z,19.74
2023-03-31T23:02:52.744Z,19.73
2023-03-31T23:05:21.715Z,19.76
2023-03-31T23:07:48.469Z,19.75
2023-03-31T23:10:17.275Z,19.74
2023-03-31T23:12:46.325Z,19.74
2023-03-31T23:15:15.837Z,19.75
2023-03-31T23:17:47.246Z,19.74
2023-03-31T23:20:16.164Z,19.75
2023-03-31T23:22:45.014Z,19.75
2023-03-31T23:25:13.814Z,19.75
2023-03-31T23:27:42.670Z,19.74
2023-03-31T23:30:12.015Z,19.75
2023-03-31T23:32:41.112Z,19.73
2023-03-31T23:35:08.186Z,19.74
2023-03-31T23:37:37.006Z,19.73
2023-03-31T23:40:04.401Z,19.74
2023-03-31T23:42:31.381Z,19.73
2023-03-31T23:45:00.641Z,19.73
2023-03-31T23:47:29.500Z,19.74
2023-03-31T23:49:56.978Z,19.72
2023-03-31T23:52:27.412Z,19.74
2023-03-31T23:54:56.239Z,19.74
2023-03-31T23:57:25.108Z,19.73
2023-03-31T23:59:52.555Z,19.74
